Time;durP1;ratioP1;P1;durP2;ratioP2;P2;SDS_P1;SDS_P2;PMS_P1;PMS_P2;Temp;Humidity;BMP_temperature;BMP_pressure;BME280_temperature;BME280_humidity;BME280_pressure;Samples;Min_cycle;Max_cycle;Signal;HPM_P1;HPM_P2
2022/08/01 00:01:51;;;;;;;15.27;9.55;;;;;;;;;;4989872;28;20153;-65
2022/08/01 00:04:17;;;;;;;16.08;9.85;;;;;;;;;;4989310;28;20241;-65
2022/08/01 00:06:43;;;;;;;15.18;10.02;;;;;;;;;;4989792;28;20042;-65
2022/08/01 00:09:09;;;;;;;17.90;9.65;;;;;;;;;;4991770;28;20126;-65
2022/08/01 00:11:35;;;;;;;16.73;9.90;;;;;;;;;;4993316;28;20512;-65
2022/08/01 00:14:01;;;;;;;14.02;9.85;;;;;;;;;;4993602;28;20089;-65
2022/08/01 00:16:27;;;;;;;13.18;9.25;;;;;;;;;;4993221;28;20440;-65
2022/08/01 00:18:53;;;;;;;15.20;8.63;;;;;;;;;;4975608;28;20107;-65
2022/08/01 00:21:19;;;;;;;14.68;8.75;;;;;;;;;;4992828;28;20539;-65
2022/08/01 00:23:45;;;;;;;13.73;8.43;;;;;;;;;;4975406;28;20049;-65
2022/08/01 00:26:15;;;;;;;11.80;7.53;;;;;;;;;;4975243;28;20038;-65
2022/08/01 00:28:41;;;;;;;12.10;7.60;;;;;;;;;;4975145;28;20034;-65
2022/08/01 00:31:07;;;;;;;11.95;7.72;;;;;;;;;;4993307;28;20034;-65
2022/08/01 00:33:33;;;;;;;12.10;7.53;;;;;;;;;;4975495;28;20049;-65
2022/08/01 00:35:59;;;;;;;9.68;6.90;;;;;;;;;;4975176;28;20549;-65
2022/08/01 00:38:25;;;;;;;16.83;8.15;;;;;;;;;;4992827;28;20160;-65
2022/08/01 00:40:51;;;;;;;10.07;6.90;;;;;;;;;;4992950;28;20046;-65
2022/08/01 00:43:17;;;;;;;11.52;6.90;;;;;;;;;;4992310;28;20049;-65
2022/08/01 00:45:43;;;;;;;11.27;7.18;;;;;;;;;;4992285;28;20081;-65
2022/08/01 00:48:09;;;;;;;9.90;7.22;;;;;;;;;;4992313;28;20518;-65
2022/08/01 00:50:35;;;;;;;10.82;7.18;;;;;;;;;;4992260;28;20046;-65
2022/08/01 00:53:02;;;;;;;11.30;6.70;;;;;;;;;;4975092;28;20493;-65
2022/08/01 00:55:28;;;;;;;9.80;6.55;;;;;;;;;;4992583;28;20157;-65
2022/08/01 00:57:55;;;;;;;9.52;6.22;;;;;;;;;;4974397;28;20046;-65
2022/08/01 01:00:21;;;;;;;8.80;6.30;;;;;;;;;;4992607;28;20046;-65
2022/08/01 01:02:47;;;;;;;8.10;5.60;;;;;;;;;;4992559;28;20046;-65
2022/08/01 01:05:13;;;;;;;8.45;5.72;;;;;;;;;;4992108;28;20432;-65
2022/08/01 01:08:02;;;;;;;9.43;5.97;;;;;;;;;;4992395;28;20068;-65
2022/08/01 01:10:41;;;;;;;10.25;6.13;;;;;;;;;;4974760;28;20047;-65
2022/08/01 01:13:09;;;;;;;10.73;5.88;;;;;;;;;;4991896;28;20093;-64
2022/08/01 01:15:39;;;;;;;9.55;5.95;;;;;;;;;;4974469;28;20042;-64
2022/08/01 01:18:14;;;;;;;8.48;5.40;;;;;;;;;;4974535;28;20405;-65
2022/08/01 01:20:43;;;;;;;8.68;6.13;;;;;;;;;;4991871;28;20061;-65
2022/08/01 01:23:20;;;;;;;10.00;6.40;;;;;;;;;;4992287;28;20089;-65
2022/08/01 01:25:54;;;;;;;9.18;6.10;;;;;;;;;;4991767;28;20046;-65
2022/08/01 01:28:41;;;;;;;10.57;6.95;;;;;;;;;;4991759;28;20042;-65
2022/08/01 01:31:08;;;;;;;11.77;7.57;;;;;;;;;;4974118;28;20069;-65
2022/08/01 01:33:37;;;;;;;10.88;5.93;;;;;;;;;;4991383;28;20429;-65
2022/08/01 01:36:05;;;;;;;9.45;6.00;;;;;;;;;;4974441;28;20088;-65
2022/08/01 01:38:34;;;;;;;10.82;5.22;;;;;;;;;;4991779;28;20042;-65
2022/08/01 01:41:00;;;;;;;4.65;3.90;;;;;;;;;;4991426;28;20077;-65
2022/08/01 01:43:27;;;;;;;5.07;3.70;;;;;;;;;;4991584;28;20042;-65
2022/08/01 01:45:54;;;;;;;4.93;3.58;;;;;;;;;;4974211;28;20093;-65
2022/08/01 01:48:21;;;;;;;5.28;3.20;;;;;;;;;;4973340;28;20057;-65
2022/08/01 01:50:48;;;;;;;4.72;2.80;;;;;;;;;;4991440;28;20494;-65
2022/08/01 01:53:19;;;;;;;3.58;2.88;;;;;;;;;;4991365;28;20066;-65
2022/08/01 01:55:46;;;;;;;3.78;2.83;;;;;;;;;;4991124;28;20045;-64
2022/08/01 01:58:12;;;;;;;2.92;2.63;;;;;;;;;;4973896;28;20405;-64
2022/08/01 02:00:39;;;;;;;3.53;2.50;;;;;;;;;;4991400;28;20148;-64
2022/08/01 02:03:06;;;;;;;3.65;2.83;;;;;;;;;;4991232;28;20092;-64
2022/08/01 02:05:34;;;;;;;6.10;3.03;;;;;;;;;;4991357;28;20039;-64
2022/08/01 02:08:01;;;;;;;4.68;3.53;;;;;;;;;;4990941;28;20042;-64
2022/08/01 02:10:27;;;;;;;4.75;3.50;;;;;;;;;;4990715;28;20477;-65
2022/08/01 02:12:54;;;;;;;5.80;3.63;;;;;;;;;;4990954;28;20081;-65
2022/08/01 02:15:21;;;;;;;6.03;3.90;;;;;;;;;;4990937;28;20071;-65
2022/08/01 02:17:49;;;;;;;4.25;3.28;;;;;;;;;;4973003;28;20133;-65
2022/08/01 02:20:16;;;;;;;4.85;3.33;;;;;;;;;;4990617;28;20050;-64
2022/08/01 02:22:47;;;;;;;6.00;3.30;;;;;;;;;;4990836;28;20173;-64
2022/08/01 02:25:14;;;;;;;5.33;3.60;;;;;;;;;;4972676;28;20053;-64
2022/08/01 02:28:00;;;;;;;4.50;3.42;;;;;;;;;;4990780;28;20409;-65
2022/08/01 02:30:30;;;;;;;5.18;3.75;;;;;;;;;;4990873;28;20054;-65
2022/08/01 02:33:02;;;;;;;5.28;3.58;;;;;;;;;;4989952;28;20146;-64
2022/08/01 02:35:30;;;;;;;4.82;3.50;;;;;;;;;;4990672;28;20046;-65
2022/08/01 02:37:57;;;;;;;4.82;3.70;;;;;;;;;;4990496;28;20089;-65
2022/08/01 02:40:24;;;;;;;4.68;4.00;;;;;;;;;;4990170;28;20046;-64
2022/08/01 02:42:51;;;;;;;3.80;2.90;;;;;;;;;;4990423;28;20042;-64
2022/08/01 02:45:18;;;;;;;5.55;3.20;;;;;;;;;;4972946;28;20050;-64
2022/08/01 02:47:46;;;;;;;5.20;3.42;;;;;;;;;;4989850;28;20061;-64
2022/08/01 02:50:13;;;;;;;5.80;3.42;;;;;;;;;;4990552;28;20379;-64
2022/08/01 02:52:40;;;;;;;9.75;3.55;;;;;;;;;;4972968;28;20466;-64
2022/08/01 02:55:07;;;;;;;7.22;2.72;;;;;;;;;;4972697;28;20050;-64
2022/08/01 02:57:34;;;;;;;7.32;3.05;;;;;;;;;;4990678;28;20132;-64
2022/08/01 03:00:01;;;;;;;4.75;2.80;;;;;;;;;;4990613;28;20038;-64
2022/08/01 03:02:29;;;;;;;6.55;3.47;;;;;;;;;;4989954;28;20092;-64
2022/08/01 03:04:55;;;;;;;7.25;2.85;;;;;;;;;;4990213;28;20042;-64
2022/08/01 03:07:23;;;;;;;6.93;3.08;;;;;;;;;;4972514;28;20377;-64
2022/08/01 03:09:50;;;;;;;10.43;3.20;;;;;;;;;;4989758;28;20042;-65
2022/08/01 03:12:18;;;;;;;7.60;2.60;;;;;;;;;;4972364;28;20082;-65
2022/08/01 03:14:45;;;;;;;4.55;2.85;;;;;;;;;;4990280;28;20084;-65
2022/08/01 03:17:11;;;;;;;6.07;2.50;;;;;;;;;;4989831;28;20034;-65
2022/08/01 03:19:38;;;;;;;3.67;2.20;;;;;;;;;;4990184;28;20046;-65
2022/08/01 03:22:07;;;;;;;8.60;2.63;;;;;;;;;;4989870;28;20086;-65
2022/08/01 03:24:34;;;;;;;7.38;2.53;;;;;;;;;;4989895;28;20505;-65
2022/08/01 03:27:01;;;;;;;9.43;3.25;;;;;;;;;;4972492;28;20073;-65
2022/08/01 03:29:29;;;;;;;5.65;2.45;;;;;;;;;;4972869;28;20048;-65
2022/08/01 03:31:55;;;;;;;9.73;2.40;;;;;;;;;;4972015;28;20049;-65
2022/08/01 03:34:21;;;;;;;10.57;2.80;;;;;;;;;;4989900;28;20520;-65
2022/08/01 03:36:47;;;;;;;7.22;2.50;;;;;;;;;;4972380;28;20046;-65
2022/08/01 03:39:15;;;;;;;7.07;2.30;;;;;;;;;;4971987;28;20043;-65
2022/08/01 03:41:42;;;;;;;7.30;2.53;;;;;;;;;;4989838;28;20037;-65
2022/08/01 03:44:10;;;;;;;8.70;2.97;;;;;;;;;;4974640;28;20046;-65
2022/08/01 03:46:45;;;;;;;5.68;2.55;;;;;;;;;;4975375;28;20062;-65
2022/08/01 03:49:15;;;;;;;9.18;2.78;;;;;;;;;;4993832;28;20481;-65
2022/08/01 03:51:41;;;;;;;10.45;2.58;;;;;;;;;;4993782;28;20400;-65
2022/08/01 03:54:08;;;;;;;7.65;2.78;;;;;;;;;;4993267;28;20046;-65
2022/08/01 03:56:35;;;;;;;8.60;2.80;;;;;;;;;;4976178;28;20046;-65
2022/08/01 03:59:02;;;;;;;10.73;2.60;;;;;;;;;;4993632;28;20046;-65
2022/08/01 04:01:29;;;;;;;11.25;2.95;;;;;;;;;;4993295;28;20042;-65
2022/08/01 04:03:55;;;;;;;7.38;2.63;;;;;;;;;;4976026;28;20136;-65
2022/08/01 04:06:21;;;;;;;11.27;2.63;;;;;;;;;;4993516;28;20084;-64
2022/08/01 04:08:55;;;;;;;10.88;3.08;;;;;;;;;;4992859;28;20037;-64
2022/08/01 04:11:21;;;;;;;11.77;2.60;;;;;;;;;;4993441;28;20417;-64
2022/08/01 04:13:48;;;;;;;8.02;2.53;;;;;;;;;;4993224;28;20038;-64
2022/08/01 04:16:14;;;;;;;14.43;2.90;;;;;;;;;;4975280;28;20070;-64
2022/08/01 04:18:40;;;;;;;11.57;3.33;;;;;;;;;;4975702;28;20042;-64
2022/08/01 04:21:06;;;;;;;12.32;3.10;;;;;;;;;;4993304;28;20489;-64
2022/08/01 04:23:33;;;;;;;8.25;3.10;;;;;;;;;;4992845;28;20038;-64
2022/08/01 04:26:00;;;;;;;9.05;3.05;;;;;;;;;;4975529;28;20071;-64
2022/08/01 04:28:26;;;;;;;12.27;3.33;;;;;;;;;;4993027;28;20054;-64
2022/08/01 04:30:54;;;;;;;10.20;3.42;;;;;;;;;;4992524;28;20042;-64
2022/08/01 04:33:20;;;;;;;11.30;4.05;;;;;;;;;;4975527;28;20452;-64
2022/08/01 04:35:47;;;;;;;8.77;2.53;;;;;;;;;;4994296;28;20476;-64
2022/08/01 04:38:16;;;;;;;9.52;3.10;;;;;;;;;;4993752;28;20034;-64
2022/08/01 04:40:43;;;;;;;13.48;3.33;;;;;;;;;;4994118;28;20489;-64
2022/08/01 04:43:09;;;;;;;9.75;3.40;;;;;;;;;;4993396;28;20038;-64
2022/08/01 04:45:36;;;;;;;12.65;4.00;;;;;;;;;;4993603;28;20421;-64
2022/08/01 04:48:06;;;;;;;12.32;3.65;;;;;;;;;;4976050;28;20086;-64
2022/08/01 04:50:32;;;;;;;15.07;3.65;;;;;;;;;;4976024;28;20038;-64
2022/08/01 04:52:58;;;;;;;12.32;4.32;;;;;;;;;;4993104;28;20038;-64
2022/08/01 04:55:24;;;;;;;12.88;4.30;;;;;;;;;;4993397;28;20034;-65
2022/08/01 04:57:50;;;;;;;7.93;3.13;;;;;;;;;;4993848;28;20658;-64
2022/08/01 05:00:16;;;;;;;11.05;4.30;;;;;;;;;;4975608;28;20416;-64
2022/08/01 05:02:42;;;;;;;12.23;4.75;;;;;;;;;;4993841;28;20058;-64
2022/08/01 05:05:10;;;;;;;14.68;3.92;;;;;;;;;;4976208;28;20581;-65
2022/08/01 05:07:36;;;;;;;12.43;3.95;;;;;;;;;;4993310;28;20585;-65
2022/08/01 05:10:06;;;;;;;9.55;3.60;;;;;;;;;;4993063;28;20354;-64
2022/08/01 05:12:32;;;;;;;13.63;3.53;;;;;;;;;;4975600;28;20073;-65
2022/08/01 05:15:01;;;;;;;13.30;4.20;;;;;;;;;;4975784;28;20050;-65
2022/08/01 05:17:27;;;;;;;8.93;3.58;;;;;;;;;;4993379;28;20067;-65
2022/08/01 05:19:53;;;;;;;11.48;4.00;;;;;;;;;;4975940;28;20470;-65
2022/08/01 05:22:19;;;;;;;8.77;3.90;;;;;;;;;;4975681;28;20494;-64
2022/08/01 05:24:46;;;;;;;8.50;3.83;;;;;;;;;;4992891;28;20061;-64
2022/08/01 05:27:13;;;;;;;12.32;3.97;;;;;;;;;;4975210;28;20058;-64
2022/08/01 05:29:39;;;;;;;9.07;3.70;;;;;;;;;;4992942;28;20050;-64
2022/08/01 05:32:05;;;;;;;9.70;3.60;;;;;;;;;;4992331;28;20768;-64
2022/08/01 05:34:31;;;;;;;12.32;4.32;;;;;;;;;;4975015;28;20039;-64
2022/08/01 05:36:57;;;;;;;15.10;3.90;;;;;;;;;;4992808;28;20561;-64
2022/08/01 05:39:23;;;;;;;13.82;3.60;;;;;;;;;;4992082;28;20224;-64
2022/08/01 05:41:50;;;;;;;7.95;3.10;;;;;;;;;;4992758;28;20536;-64
2022/08/01 05:44:16;;;;;;;13.63;3.63;;;;;;;;;;4975263;28;20061;-64
2022/08/01 05:46:42;;;;;;;14.73;3.30;;;;;;;;;;4992131;28;20042;-64
2022/08/01 05:49:08;;;;;;;11.93;3.80;;;;;;;;;;4975364;28;20116;-64
2022/08/01 05:51:34;;;;;;;10.20;3.38;;;;;;;;;;4992940;28;20664;-64
2022/08/01 05:54:00;;;;;;;17.23;3.75;;;;;;;;;;4992240;28;20043;-64
2022/08/01 05:56:26;;;;;;;11.65;3.55;;;;;;;;;;4992734;28;20125;-64
2022/08/01 05:58:52;;;;;;;12.60;3.03;;;;;;;;;;4992758;28;20093;-64
2022/08/01 06:01:19;;;;;;;12.40;3.58;;;;;;;;;;4992096;28;20381;-64
2022/08/01 06:03:45;;;;;;;13.35;3.42;;;;;;;;;;4992615;28;20050;-64
2022/08/01 06:06:11;;;;;;;9.63;3.67;;;;;;;;;;5009368;28;20132;-62
2022/08/01 06:08:37;;;;;;;9.38;3.13;;;;;;;;;;4995986;28;20569;-61
2022/08/01 06:11:03;;;;;;;18.75;3.28;;;;;;;;;;4991961;28;20046;-62
2022/08/01 06:13:29;;;;;;;11.38;3.42;;;;;;;;;;4991731;28;20089;-62
2022/08/01 06:15:55;;;;;;;10.25;3.25;;;;;;;;;;4991707;28;20042;-62
2022/08/01 06:18:21;;;;;;;15.65;3.58;;;;;;;;;;4991992;28;20042;-63
2022/08/01 06:20:47;;;;;;;10.18;3.05;;;;;;;;;;4992221;28;20069;-62
2022/08/01 06:23:15;;;;;;;12.88;3.55;;;;;;;;;;4991528;28;20473;-63
2022/08/01 06:25:42;;;;;;;18.42;3.72;;;;;;;;;;4991797;28;20432;-63
2022/08/01 06:28:08;;;;;;;11.60;3.88;;;;;;;;;;4974401;28;20054;-62
2022/08/01 06:30:34;;;;;;;14.95;3.50;;;;;;;;;;4991487;28;20146;-62
2022/08/01 06:33:00;;;;;;;13.95;3.28;;;;;;;;;;4991519;28;20077;-64
2022/08/01 06:35:29;;;;;;;17.45;2.92;;;;;;;;;;4991795;28;20038;-63
2022/08/01 06:37:55;;;;;;;18.02;3.40;;;;;;;;;;4991087;28;20898;-63
2022/08/01 06:40:21;;;;;;;15.07;3.30;;;;;;;;;;4991636;28;20043;-63
2022/08/01 06:42:47;;;;;;;21.08;4.20;;;;;;;;;;4991657;28;20038;-63
2022/08/01 06:45:14;;;;;;;20.08;3.40;;;;;;;;;;4991322;28;20049;-64
2022/08/01 06:47:40;;;;;;;23.50;3.50;;;;;;;;;;4991126;28;20054;-63
2022/08/01 06:50:08;;;;;;;18.65;3.70;;;;;;;;;;4991376;28;20054;-63
2022/08/01 06:52:34;;;;;;;12.90;3.50;;;;;;;;;;4991188;28;20038;-63
2022/08/01 06:55:01;;;;;;;12.70;2.97;;;;;;;;;;4991074;28;20034;-63
2022/08/01 06:57:27;;;;;;;15.02;3.30;;;;;;;;;;4991116;28;20038;-63
2022/08/01 06:59:53;;;;;;;15.63;4.20;;;;;;;;;;4990932;28;20046;-64
2022/08/01 07:02:19;;;;;;;17.00;3.17;;;;;;;;;;4991167;28;20046;-64
2022/08/01 07:04:45;;;;;;;18.50;3.50;;;;;;;;;;4991390;28;20148;-64
2022/08/01 07:07:11;;;;;;;16.40;3.25;;;;;;;;;;5003841;28;20045;-64
2022/08/01 07:09:40;;;;;;;16.88;3.28;;;;;;;;;;5010005;28;20038;-63
2022/08/01 07:12:06;;;;;;;12.90;3.42;;;;;;;;;;4991139;28;20073;-66
2022/08/01 07:14:32;;;;;;;21.50;3.53;;;;;;;;;;4980745;28;20104;-64
2022/08/01 07:16:58;;;;;;;17.08;3.50;;;;;;;;;;5010585;28;20497;-64
2022/08/01 07:19:24;;;;;;;18.70;3.20;;;;;;;;;;4995938;28;20050;-64
2022/08/01 07:21:50;;;;;;;14.60;3.17;;;;;;;;;;4990672;28;20093;-64
2022/08/01 07:24:17;;;;;;;15.60;3.30;;;;;;;;;;4991249;28;20042;-65
2022/08/01 07:26:44;;;;;;;14.18;3.70;;;;;;;;;;4990598;28;20513;-65
2022/08/01 07:29:10;;;;;;;16.25;3.40;;;;;;;;;;4990705;28;20038;-65
2022/08/01 07:31:36;;;;;;;18.23;3.58;;;;;;;;;;4990873;28;20038;-64
2022/08/01 07:34:02;;;;;;;16.50;3.60;;;;;;;;;;4991009;28;20049;-64
2022/08/01 07:36:28;;;;;;;15.93;4.07;;;;;;;;;;4973220;28;20046;-65
2022/08/01 07:38:54;;;;;;;13.75;3.35;;;;;;;;;;4990938;28;20389;-65
2022/08/01 07:41:20;;;;;;;15.70;3.20;;;;;;;;;;4973670;28;20181;-62
2022/08/01 07:43:48;;;;;;;14.98;4.53;;;;;;;;;;4990379;28;20164;-62
2022/08/01 07:46:15;;;;;;;16.02;3.40;;;;;;;;;;4973026;28;20046;-65
2022/08/01 07:48:41;;;;;;;17.30;3.88;;;;;;;;;;4990504;28;20165;-65
2022/08/01 07:51:09;;;;;;;13.77;2.80;;;;;;;;;;4990159;28;20042;-64
2022/08/01 07:53:35;;;;;;;14.38;3.08;;;;;;;;;;4990901;28;20065;-64
2022/08/01 07:56:02;;;;;;;13.55;3.22;;;;;;;;;;4990664;28;20396;-65
2022/08/01 07:58:28;;;;;;;19.27;3.13;;;;;;;;;;4990008;28;20046;-62
2022/08/01 08:00:54;;;;;;;15.65;2.72;;;;;;;;;;4991081;28;20157;-63
2022/08/01 08:03:20;;;;;;;15.80;3.15;;;;;;;;;;4990850;28;20469;-63
2022/08/01 08:05:46;;;;;;;16.58;2.90;;;;;;;;;;4990298;28;20057;-64
2022/08/01 08:08:13;;;;;;;13.82;3.28;;;;;;;;;;4990886;28;20046;-63
2022/08/01 08:10:39;;;;;;;18.90;3.40;;;;;;;;;;4973065;28;20148;-63
2022/08/01 08:13:06;;;;;;;14.18;3.08;;;;;;;;;;4989850;28;20042;-62
2022/08/01 08:15:32;;;;;;;12.20;2.97;;;;;;;;;;4990762;28;20038;-63
2022/08/01 08:17:58;;;;;;;15.27;2.63;;;;;;;;;;4973028;28;20050;-63
2022/08/01 08:20:28;;;;;;;12.20;2.33;;;;;;;;;;4990634;28;20422;-63
2022/08/01 08:22:55;;;;;;;17.92;3.20;;;;;;;;;;4972960;28;20057;-62
2022/08/01 08:25:21;;;;;;;12.50;3.13;;;;;;;;;;4990706;28;20424;-62
2022/08/01 08:27:48;;;;;;;14.80;2.72;;;;;;;;;;4989672;28;20050;-62
2022/08/01 08:30:14;;;;;;;11.43;2.47;;;;;;;;;;4992585;28;20054;-62
2022/08/01 08:32:40;;;;;;;15.10;2.50;;;;;;;;;;4993850;28;20418;-62
2022/08/01 08:35:07;;;;;;;19.10;3.35;;;;;;;;;;4993218;28;20039;-62
2022/08/01 08:37:34;;;;;;;15.60;3.08;;;;;;;;;;4993819;28;20049;-61
2022/08/01 08:40:00;;;;;;;13.40;2.47;;;;;;;;;;4993838;28;20121;-61
2022/08/01 08:42:26;;;;;;;12.27;3.03;;;;;;;;;;4993009;28;20393;-62
2022/08/01 08:44:54;;;;;;;18.70;2.58;;;;;;;;;;4993934;28;20038;-63
2022/08/01 08:47:21;;;;;;;13.98;2.40;;;;;;;;;;4993343;28;20054;-63
2022/08/01 08:49:50;;;;;;;10.63;2.25;;;;;;;;;;4991381;28;20469;-62
2022/08/01 08:52:19;;;;;;;12.60;2.42;;;;;;;;;;4991170;28;20453;-64
2022/08/01 08:54:46;;;;;;;10.57;2.67;;;;;;;;;;4990474;28;20043;-64
2022/08/01 08:57:14;;;;;;;18.17;2.60;;;;;;;;;;4991375;28;20553;-63
2022/08/01 08:59:40;;;;;;;14.32;2.50;;;;;;;;;;4989466;28;20046;-65
2022/08/01 09:02:09;;;;;;;9.57;2.42;;;;;;;;;;4994739;28;20584;-64
2022/08/01 09:04:36;;;;;;;10.57;2.30;;;;;;;;;;5004281;28;20043;-63
2022/08/01 09:07:04;;;;;;;10.15;2.15;;;;;;;;;;4992127;28;20377;-65
2022/08/01 09:09:30;;;;;;;14.02;1.88;;;;;;;;;;4993180;28;20125;-68
2022/08/01 09:11:56;;;;;;;9.40;2.50;;;;;;;;;;4993823;28;20042;-64
2022/08/01 09:14:29;;;;;;;8.35;1.60;;;;;;;;;;4996718;28;20101;-64
2022/08/01 09:17:08;;;;;;;13.98;1.98;;;;;;;;;;4997739;28;20117;-65
2022/08/01 09:19:37;;;;;;;11.43;2.30;;;;;;;;;;5001657;28;20046;-66
2022/08/01 09:22:04;;;;;;;11.18;2.00;;;;;;;;;;5006452;28;20448;-65
2022/08/01 09:24:31;;;;;;;8.35;2.05;;;;;;;;;;4971699;28;20101;-65
2022/08/01 09:26:58;;;;;;;12.45;2.53;;;;;;;;;;4990261;28;20046;-65
2022/08/01 09:29:26;;;;;;;14.27;2.22;;;;;;;;;;4992356;28;20577;-67
2022/08/01 09:31:52;;;;;;;10.63;1.92;;;;;;;;;;5008834;28;20149;-65
2022/08/01 09:34:28;;;;;;;12.38;2.58;;;;;;;;;;4998044;28;20044;-65
2022/08/01 09:36:58;;;;;;;12.57;2.00;;;;;;;;;;4965865;28;20051;-67
2022/08/01 09:39:31;;;;;;;6.30;1.48;;;;;;;;;;4989614;28;20405;-65
2022/08/01 09:41:58;;;;;;;13.43;2.30;;;;;;;;;;4987889;28;20038;-64
2022/08/01 09:44:41;;;;;;;8.23;1.88;;;;;;;;;;4990433;28;20129;-64
2022/08/01 09:47:07;;;;;;;10.10;1.95;;;;;;;;;;4991906;28;20057;-66
2022/08/01 09:49:34;;;;;;;10.57;1.70;;;;;;;;;;4990143;28;20057;-67
2022/08/01 09:52:10;;;;;;;6.55;1.83;;;;;;;;;;4971936;28;20144;-66
2022/08/01 09:54:36;;;;;;;7.30;2.13;;;;;;;;;;4974613;28;20166;-65
2022/08/01 09:57:12;;;;;;;8.80;1.50;;;;;;;;;;4995468;28;20489;-68
2022/08/01 09:59:41;;;;;;;7.75;2.60;;;;;;;;;;4988927;28;20046;-65
2022/08/01 10:02:09;;;;;;;10.18;1.40;;;;;;;;;;4972398;28;20082;-65
2022/08/01 10:04:35;;;;;;;7.85;1.45;;;;;;;;;;4998656;28;20045;-65
2022/08/01 10:07:05;;;;;;;7.18;1.58;;;;;;;;;;5001508;28;20508;-66
2022/08/01 10:09:39;;;;;;;7.20;1.50;;;;;;;;;;4989086;28;20105;-65
2022/08/01 10:12:05;;;;;;;9.40;1.90;;;;;;;;;;4991281;28;20049;-65
2022/08/01 10:14:32;;;;;;;5.07;1.50;;;;;;;;;;4976670;28;20038;-68
2022/08/01 10:16:58;;;;;;;7.70;1.90;;;;;;;;;;4987531;28;20073;-69
2022/08/01 10:19:25;;;;;;;10.80;1.83;;;;;;;;;;4985905;28;20046;-68
2022/08/01 10:21:53;;;;;;;11.50;1.50;;;;;;;;;;4973083;28;20132;-68
2022/08/01 10:24:20;;;;;;;8.80;1.48;;;;;;;;;;4978646;28;20046;-66
2022/08/01 10:26:48;;;;;;;6.45;1.30;;;;;;;;;;4993157;28;20056;-66
2022/08/01 10:29:18;;;;;;;5.10;1.30;;;;;;;;;;4991408;28;20042;-70
2022/08/01 10:31:44;;;;;;;7.53;1.30;;;;;;;;;;4971361;28;20517;-69
2022/08/01 10:34:11;;;;;;;6.88;1.45;;;;;;;;;;4990682;28;20042;-69
2022/08/01 10:36:38;;;;;;;7.93;1.73;;;;;;;;;;4992717;28;20037;-69
2022/08/01 10:39:10;;;;;;;10.15;1.55;;;;;;;;;;4990207;28;20038;-69
2022/08/01 10:41:37;;;;;;;5.43;1.50;;;;;;;;;;4973293;28;20046;-69
2022/08/01 10:44:03;;;;;;;9.75;2.03;;;;;;;;;;4973525;28;20513;-67
2022/08/01 10:46:31;;;;;;;7.07;1.67;;;;;;;;;;4990621;28;20058;-68
2022/08/01 10:49:05;;;;;;;8.82;1.30;;;;;;;;;;4972196;28;20132;-68
2022/08/01 10:51:31;;;;;;;7.78;1.75;;;;;;;;;;4972841;28;20105;-68
2022/08/01 10:54:01;;;;;;;6.22;1.45;;;;;;;;;;4990308;28;20540;-68
2022/08/01 10:56:38;;;;;;;7.18;1.15;;;;;;;;;;4989514;28;20056;-68
2022/08/01 10:59:05;;;;;;;10.85;1.55;;;;;;;;;;4996176;28;20050;-68
2022/08/01 11:01:32;;;;;;;6.32;1.33;;;;;;;;;;4991025;28;20129;-68
2022/08/01 11:04:01;;;;;;;7.80;1.42;;;;;;;;;;4972484;28;20504;-68
2022/08/01 11:06:33;;;;;;;7.60;1.20;;;;;;;;;;4989249;28;20117;-68
2022/08/01 11:09:12;;;;;;;6.70;1.25;;;;;;;;;;5006586;28;20042;-66
2022/08/01 11:11:57;;;;;;;7.28;1.33;;;;;;;;;;4988480;28;20124;-63
2022/08/01 11:14:23;;;;;;;8.88;1.20;;;;;;;;;;4988068;28;20053;-64
2022/08/01 11:16:49;;;;;;;6.15;1.08;;;;;;;;;;4990282;28;20038;-65
2022/08/01 11:19:15;;;;;;;6.53;1.13;;;;;;;;;;4987060;28;20043;-66
2022/08/01 11:21:53;;;;;;;5.60;1.50;;;;;;;;;;4986757;28;20038;-66
2022/08/01 11:24:38;;;;;;;6.43;1.30;;;;;;;;;;4972750;28;20084;-67
2022/08/01 11:27:17;;;;;;;4.38;1.10;;;;;;;;;;4989741;28;20046;-66
2022/08/01 11:29:43;;;;;;;6.38;1.40;;;;;;;;;;4986993;28;20065;-66
2022/08/01 11:32:25;;;;;;;8.32;1.58;;;;;;;;;;4973007;28;20163;-67
2022/08/01 11:34:55;;;;;;;4.07;1.10;;;;;;;;;;4990729;28;20038;-68
2022/08/01 11:37:25;;;;;;;4.88;1.00;;;;;;;;;;4970631;28;20350;-67
2022/08/01 11:40:30;;;;;;;3.67;1.02;;;;;;;;;;4990031;28;20038;-66
2022/08/01 11:43:16;;;;;;;7.57;1.30;;;;;;;;;;4913069;29;20406;-68
2022/08/01 11:45:54;;;;;;;5.00;0.90;;;;;;;;;;4897873;29;20055;-68
2022/08/01 11:48:27;;;;;;;7.13;1.13;;;;;;;;;;4945378;28;20050;-65
2022/08/01 11:50:54;;;;;;;5.78;1.30;;;;;;;;;;4972643;28;20047;-66
2022/08/01 11:53:21;;;;;;;9.82;1.50;;;;;;;;;;4990025;28;20546;-66
2022/08/01 11:55:50;;;;;;;3.97;1.17;;;;;;;;;;4998107;28;20045;-63
2022/08/01 11:58:20;;;;;;;10.82;1.90;;;;;;;;;;4987624;28;20057;-65
2022/08/01 12:00:56;;;;;;;8.30;1.38;;;;;;;;;;4987003;28;20448;-64
2022/08/01 12:03:32;;;;;;;8.95;1.80;;;;;;;;;;4955496;28;20046;-63
2022/08/01 12:05:59;;;;;;;6.50;1.40;;;;;;;;;;4982560;28;20054;-64
2022/08/01 12:08:29;;;;;;;4.07;1.20;;;;;;;;;;4987956;28;20092;-64
2022/08/01 12:10:55;;;;;;;4.47;1.02;;;;;;;;;;4993294;28;20477;-64
2022/08/01 12:13:21;;;;;;;6.22;1.25;;;;;;;;;;4993799;28;20038;-65
2022/08/01 12:15:49;;;;;;;8.43;1.70;;;;;;;;;;4992408;28;20044;-64
2022/08/01 12:18:16;;;;;;;10.98;1.40;;;;;;;;;;4993258;28;20659;-63
2022/08/01 12:20:43;;;;;;;8.50;1.35;;;;;;;;;;5009949;28;20412;-64
2022/08/01 12:23:11;;;;;;;7.43;1.33;;;;;;;;;;4992614;28;20046;-64
2022/08/01 12:25:39;;;;;;;8.88;2.05;;;;;;;;;;4990676;28;20035;-64
2022/08/01 12:28:06;;;;;;;4.45;1.35;;;;;;;;;;5001686;28;20559;-64
2022/08/01 12:30:36;;;;;;;5.97;1.30;;;;;;;;;;5000764;28;20108;-63
2022/08/01 12:33:06;;;;;;;8.85;1.13;;;;;;;;;;4993673;28;20541;-65
2022/08/01 12:35:33;;;;;;;7.75;1.13;;;;;;;;;;4993811;28;20121;-67
2022/08/01 12:38:01;;;;;;;3.42;0.80;;;;;;;;;;4992844;28;20042;-66
2022/08/01 12:40:31;;;;;;;5.45;1.10;;;;;;;;;;4989955;28;20129;-66
2022/08/01 12:42:58;;;;;;;6.68;1.55;;;;;;;;;;4993187;28;20165;-64
2022/08/01 12:45:28;;;;;;;3.97;1.00;;;;;;;;;;4993446;28;20543;-64
2022/08/01 12:47:57;;;;;;;5.70;1.30;;;;;;;;;;4992682;28;20141;-65
2022/08/01 12:50:24;;;;;;;6.35;1.35;;;;;;;;;;4993221;28;20050;-65
2022/08/01 12:52:50;;;;;;;8.07;1.15;;;;;;;;;;4991497;28;20535;-68
2022/08/01 12:55:24;;;;;;;5.40;1.30;;;;;;;;;;4992507;28;20442;-67
2022/08/01 12:57:52;;;;;;;7.10;1.17;;;;;;;;;;4988242;28;20124;-68
2022/08/01 13:00:18;;;;;;;6.43;1.08;;;;;;;;;;4978070;28;20061;-69
2022/08/01 13:02:45;;;;;;;4.32;1.67;;;;;;;;;;4991696;28;20143;-66
2022/08/01 13:05:12;;;;;;;6.18;1.17;;;;;;;;;;4992543;28;20038;-66
2022/08/01 13:07:43;;;;;;;3.47;1.00;;;;;;;;;;4996632;28;20041;-65
2022/08/01 13:10:10;;;;;;;4.38;0.80;;;;;;;;;;4991753;28;20042;-67
2022/08/01 13:12:36;;;;;;;6.75;1.30;;;;;;;;;;4997228;28;20520;-66
2022/08/01 13:15:19;;;;;;;4.20;0.93;;;;;;;;;;4973146;28;20369;-68
2022/08/01 13:17:45;;;;;;;9.32;1.38;;;;;;;;;;4989500;28;20756;-68
2022/08/01 13:20:21;;;;;;;6.43;1.17;;;;;;;;;;4982183;28;20440;-68
2022/08/01 13:22:47;;;;;;;4.25;1.10;;;;;;;;;;4973274;28;20038;-69
2022/08/01 13:25:14;;;;;;;4.47;1.50;;;;;;;;;;4991294;28;20523;-70
2022/08/01 13:27:40;;;;;;;4.68;1.15;;;;;;;;;;4971530;28;20069;-65
2022/08/01 13:30:17;;;;;;;5.55;1.13;;;;;;;;;;4990946;28;20377;-67
2022/08/01 13:32:44;;;;;;;6.43;1.33;;;;;;;;;;4989692;28;20057;-67
2022/08/01 13:35:12;;;;;;;5.32;1.00;;;;;;;;;;4991154;28;20050;-67
2022/08/01 13:37:39;;;;;;;2.88;0.95;;;;;;;;;;4991027;28;20038;-65
2022/08/01 13:40:06;;;;;;;5.20;1.50;;;;;;;;;;4990700;28;20046;-65
2022/08/01 13:42:32;;;;;;;5.40;1.30;;;;;;;;;;4991167;28;20089;-66
2022/08/01 13:44:58;;;;;;;3.55;0.90;;;;;;;;;;4990466;28;20444;-66
2022/08/01 13:47:24;;;;;;;4.78;0.90;;;;;;;;;;4991528;28;20058;-66
2022/08/01 13:49:50;;;;;;;6.53;1.30;;;;;;;;;;4992555;28;20046;-67
2022/08/01 13:52:16;;;;;;;6.75;1.13;;;;;;;;;;4992517;28;20050;-65
2022/08/01 13:54:42;;;;;;;3.40;0.82;;;;;;;;;;4991938;28;20085;-65
2022/08/01 13:57:09;;;;;;;5.05;1.10;;;;;;;;;;4958737;28;20462;-66
2022/08/01 13:59:35;;;;;;;3.78;1.10;;;;;;;;;;4992547;28;20046;-65
2022/08/01 14:02:02;;;;;;;6.10;1.02;;;;;;;;;;4992108;28;20043;-66
2022/08/01 14:04:28;;;;;;;6.57;1.20;;;;;;;;;;4974552;28;20050;-65
2022/08/01 14:06:54;;;;;;;10.07;1.30;;;;;;;;;;4974815;28;20042;-65
2022/08/01 14:09:22;;;;;;;4.50;0.95;;;;;;;;;;4991712;28;20085;-65
2022/08/01 14:11:49;;;;;;;3.47;0.93;;;;;;;;;;4992145;28;20042;-65
2022/08/01 14:14:15;;;;;;;3.15;0.77;;;;;;;;;;4992219;28;20041;-64
2022/08/01 14:16:44;;;;;;;5.53;1.10;;;;;;;;;;4991452;28;20046;-68
2022/08/01 14:19:10;;;;;;;6.22;0.90;;;;;;;;;;4992016;28;20109;-65
2022/08/01 14:21:36;;;;;;;5.85;1.20;;;;;;;;;;4991847;28;20473;-65
2022/08/01 14:24:02;;;;;;;4.85;1.15;;;;;;;;;;4991261;28;20160;-64
2022/08/01 14:26:28;;;;;;;6.20;1.10;;;;;;;;;;4990914;28;20035;-68
2022/08/01 14:28:54;;;;;;;4.47;0.82;;;;;;;;;;4974089;28;20210;-68
2022/08/01 14:31:20;;;;;;;3.65;0.65;;;;;;;;;;4973782;28;20050;-68
2022/08/01 14:33:46;;;;;;;4.55;1.05;;;;;;;;;;4974490;28;20046;-68
2022/08/01 14:36:12;;;;;;;5.38;1.10;;;;;;;;;;4974067;28;20120;-68
2022/08/01 14:38:39;;;;;;;4.50;0.82;;;;;;;;;;4974133;28;20092;-68
2022/08/01 14:41:05;;;;;;;3.80;1.00;;;;;;;;;;4974465;28;20141;-68
2022/08/01 14:43:32;;;;;;;10.60;1.30;;;;;;;;;;4991986;28;20042;-68